Time;durP1;ratioP1;P1;durP2;ratioP2;P2;SDS_P1;SDS_P2;PMS_P1;PMS_P2;Temp;Humidity;BMP_temperature;BMP_pressure;BME280_temperature;BME280_humidity;BME280_pressure;Samples;Min_cycle;Max_cycle;Signal;HPM_P1;HPM_P2
2022/06/02 00:00:06;;;;;;;0.6;0.6;;;;;;;12.2;100.0;101700;;;;
2022/06/02 00:01:10;;;;;;;0.6;0.6;;;;;;;12.2;100.0;101700;;;;
2022/06/02 00:02:03;;;;;;;0.6;0.6;;;;;;;12.1;100.0;101700;;;;
2022/06/02 00:03:08;;;;;;;0.6;0.6;;;;;;;12.1;100.0;101700;;;;
2022/06/02 00:04:00;;;;;;;0.6;0.6;;;;;;;12.1;100.0;101700;;;;
2022/06/02 00:05:03;;;;;;;0.6;0.6;;;;;;;12.1;100.0;101700;;;;
2022/06/02 00:06:01;;;;;;;0.6;0.6;;;;;;;12.1;100.0;101700;;;;
2022/06/02 00:07:10;;;;;;;0.6;0.6;;;;;;;12.1;100.0;101700;;;;
2022/06/02 00:08:00;;;;;;;0.6;0.6;;;;;;;12.1;100.0;101700;;;;
2022/06/02 00:09:10;;;;;;;0.6;0.6;;;;;;;12.1;100.0;101700;;;;
2022/06/02 00:10:10;;;;;;;0.6;0.6;;;;;;;12.1;100.0;101700;;;;
2022/06/02 00:11:10;;;;;;;0.6;0.6;;;;;;;12.1;100.0;101700;;;;
2022/06/02 00:12:03;;;;;;;0.6;0.6;;;;;;;12.1;100.0;101710;;;;
2022/06/02 00:13:10;;;;;;;0.7;0.7;;;;;;;12.1;100.0;101710;;;;
2022/06/02 00:14:10;;;;;;;0.7;0.7;;;;;;;12.0;100.0;101710;;;;
2022/06/02 00:15:00;;;;;;;0.7;0.7;;;;;;;12.0;100.0;101710;;;;
2022/06/02 00:16:03;;;;;;;0.7;0.7;;;;;;;12.0;100.0;101710;;;;
2022/06/02 00:17:00;;;;;;;0.7;0.7;;;;;;;12.0;100.0;101710;;;;
2022/06/02 00:18:10;;;;;;;0.7;0.7;;;;;;;12.0;100.0;101710;;;;
2022/06/02 00:19:05;;;;;;;0.7;0.7;;;;;;;12.0;100.0;101710;;;;
2022/06/02 00:20:01;;;;;;;0.7;0.7;;;;;;;12.0;100.0;101710;;;;
2022/06/02 00:21:00;;;;;;;0.7;0.7;;;;;;;12.0;100.0;101710;;;;
2022/06/02 00:22:03;;;;;;;0.7;0.7;;;;;;;11.9;100.0;101710;;;;
2022/06/02 00:23:10;;;;;;;0.7;0.7;;;;;;;11.9;100.0;101710;;;;
2022/06/02 00:24:03;;;;;;;0.7;0.7;;;;;;;11.9;100.0;101710;;;;
2022/06/02 00:25:06;;;;;;;0.7;0.7;;;;;;;11.9;100.0;101710;;;;
2022/06/02 00:26:10;;;;;;;0.7;0.7;;;;;;;11.9;100.0;101710;;;;
2022/06/02 00:27:04;;;;;;;0.7;0.7;;;;;;;11.9;100.0;101710;;;;
2022/06/02 00:28:05;;;;;;;0.7;0.7;;;;;;;11.8;100.0;101720;;;;
2022/06/02 00:29:00;;;;;;;0.7;0.7;;;;;;;11.8;100.0;101720;;;;
2022/06/02 00:30:00;;;;;;;0.7;0.7;;;;;;;11.8;100.0;101720;;;;
2022/06/02 00:31:07;;;;;;;0.7;0.7;;;;;;;11.8;100.0;101720;;;;
2022/06/02 00:32:07;;;;;;;0.7;0.7;;;;;;;11.8;100.0;101710;;;;
2022/06/02 00:33:11;;;;;;;0.8;0.8;;;;;;;11.8;100.0;101710;;;;
2022/06/02 00:34:10;;;;;;;0.8;0.8;;;;;;;11.8;100.0;101710;;;;
2022/06/02 00:35:10;;;;;;;0.8;0.8;;;;;;;11.8;100.0;101710;;;;
2022/06/02 00:36:05;;;;;;;0.8;0.8;;;;;;;11.8;100.0;101720;;;;
2022/06/02 00:37:10;;;;;;;0.8;0.8;;;;;;;11.8;100.0;101720;;;;
2022/06/02 00:38:03;;;;;;;0.8;0.8;;;;;;;11.8;100.0;101720;;;;
2022/06/02 00:39:00;;;;;;;0.8;0.8;;;;;;;11.8;100.0;101720;;;;
2022/06/02 00:40:01;;;;;;;0.8;0.8;;;;;;;11.8;100.0;101720;;;;
2022/06/02 00:41:07;;;;;;;0.8;0.8;;;;;;;11.8;100.0;101720;;;;
2022/06/02 00:42:01;;;;;;;0.8;0.8;;;;;;;11.7;100.0;101720;;;;
2022/06/02 00:43:10;;;;;;;0.8;0.8;;;;;;;11.7;100.0;101720;;;;
2022/06/02 00:44:10;;;;;;;0.8;0.8;;;;;;;11.7;100.0;101720;;;;
2022/06/02 00:45:04;;;;;;;0.8;0.8;;;;;;;11.7;100.0;101720;;;;
2022/06/02 00:46:10;;;;;;;0.8;0.8;;;;;;;11.7;100.0;101720;;;;
2022/06/02 00:47:05;;;;;;;0.8;0.8;;;;;;;11.7;100.0;101720;;;;
2022/06/02 00:48:10;;;;;;;0.8;0.8;;;;;;;11.7;100.0;101720;;;;
2022/06/02 00:49:10;;;;;;;0.8;0.8;;;;;;;11.7;100.0;101720;;;;
2022/06/02 00:50:04;;;;;;;0.8;0.8;;;;;;;11.6;100.0;101720;;;;
2022/06/02 00:51:03;;;;;;;0.8;0.8;;;;;;;11.6;100.0;101720;;;;
2022/06/02 00:52:10;;;;;;;0.8;0.8;;;;;;;11.6;100.0;101730;;;;
2022/06/02 00:53:00;;;;;;;0.9;0.9;;;;;;;11.6;100.0;101730;;;;
2022/06/02 00:58:05;;;;;;;0.9;0.9;;;;;;;11.5;100.0;101730;;;;
2022/06/02 00:59:10;;;;;;;0.9;0.9;;;;;;;11.5;100.0;101730;;;;
2022/06/02 01:00:04;;;;;;;0.9;0.9;;;;;;;11.5;100.0;101730;;;;
2022/06/02 01:01:10;;;;;;;0.9;0.9;;;;;;;11.5;100.0;101730;;;;
2022/06/02 01:02:01;;;;;;;0.9;0.9;;;;;;;11.4;100.0;101730;;;;
2022/06/02 01:03:10;;;;;;;0.9;0.9;;;;;;;11.4;100.0;101730;;;;
2022/06/02 01:04:03;;;;;;;0.9;0.9;;;;;;;11.4;100.0;101730;;;;
2022/06/02 01:05:00;;;;;;;0.9;0.9;;;;;;;11.4;100.0;101730;;;;
2022/06/02 01:06:00;;;;;;;0.9;0.9;;;;;;;11.4;100.0;101730;;;;
2022/06/02 01:07:07;;;;;;;0.9;0.9;;;;;;;11.4;100.0;101730;;;;
2022/06/02 01:08:05;;;;;;;0.9;0.9;;;;;;;11.4;100.0;101730;;;;
2022/06/02 01:09:10;;;;;;;0.9;0.9;;;;;;;11.4;100.0;101730;;;;
2022/06/02 01:10:00;;;;;;;0.9;0.9;;;;;;;11.4;100.0;101720;;;;
2022/06/02 01:11:06;;;;;;;0.9;0.9;;;;;;;11.4;100.0;101720;;;;
2022/06/02 01:12:10;;;;;;;0.9;0.9;;;;;;;11.3;100.0;101720;;;;
2022/06/02 01:13:07;;;;;;;1.1;1.1;;;;;;;11.3;100.0;101720;;;;
2022/06/02 01:14:01;;;;;;;1.1;1.1;;;;;;;11.3;100.0;101720;;;;
2022/06/02 01:15:03;;;;;;;1.1;1.1;;;;;;;11.3;100.0;101720;;;;
2022/06/02 01:16:09;;;;;;;1.1;1.1;;;;;;;11.3;100.0;101720;;;;
2022/06/02 01:17:10;;;;;;;1.1;1.1;;;;;;;11.3;100.0;101720;;;;
2022/06/02 01:18:10;;;;;;;1.1;1.1;;;;;;;11.3;100.0;101720;;;;
2022/06/02 01:19:10;;;;;;;1.1;1.1;;;;;;;11.3;100.0;101720;;;;
2022/06/02 01:20:00;;;;;;;1.1;1.1;;;;;;;11.3;100.0;101720;;;;
2022/06/02 01:21:07;;;;;;;1.1;1.1;;;;;;;11.3;100.0;101720;;;;
2022/06/02 01:22:00;;;;;;;1.1;1.1;;;;;;;11.2;100.0;101720;;;;
2022/06/02 01:23:07;;;;;;;1.1;1.1;;;;;;;11.2;100.0;101720;;;;
2022/06/02 01:24:03;;;;;;;1.1;1.1;;;;;;;11.2;100.0;101720;;;;
2022/06/02 01:25:10;;;;;;;1.1;1.1;;;;;;;11.2;100.0;101720;;;;
2022/06/02 01:26:07;;;;;;;1.1;1.1;;;;;;;11.2;100.0;101710;;;;
2022/06/02 01:27:03;;;;;;;1.1;1.1;;;;;;;11.2;100.0;101710;;;;
2022/06/02 01:28:09;;;;;;;1.1;1.1;;;;;;;11.1;100.0;101720;;;;
2022/06/02 01:29:08;;;;;;;1.1;1.1;;;;;;;11.1;100.0;101720;;;;
2022/06/02 01:30:10;;;;;;;1.1;1.1;;;;;;;11.2;100.0;101720;;;;
2022/06/02 01:31:07;;;;;;;1.1;1.1;;;;;;;11.2;100.0;101720;;;;
2022/06/02 01:32:10;;;;;;;0.8;0.8;;;;;;;11.1;100.0;101720;;;;
2022/06/02 01:33:07;;;;;;;0.8;0.8;;;;;;;11.1;100.0;101720;;;;
2022/06/02 01:34:10;;;;;;;0.8;0.8;;;;;;;11.1;100.0;101720;;;;
2022/06/02 01:35:09;;;;;;;0.8;0.8;;;;;;;11.1;100.0;101720;;;;
2022/06/02 01:36:01;;;;;;;0.8;0.8;;;;;;;11.1;100.0;101720;;;;
2022/06/02 01:37:10;;;;;;;0.8;0.8;;;;;;;11.1;100.0;101720;;;;
2022/06/02 01:38:10;;;;;;;0.8;0.8;;;;;;;11.0;100.0;101720;;;;
2022/06/02 01:39:07;;;;;;;0.8;0.8;;;;;;;11.0;100.0;101720;;;;
2022/06/02 01:40:10;;;;;;;0.8;0.8;;;;;;;11.0;100.0;101710;;;;
2022/06/02 01:41:10;;;;;;;0.8;0.8;;;;;;;11.0;100.0;101710;;;;
2022/06/02 01:42:10;;;;;;;0.8;0.8;;;;;;;11.0;100.0;101720;;;;
2022/06/02 01:43:06;;;;;;;0.8;0.8;;;;;;;11.0;100.0;101720;;;;
2022/06/02 01:44:08;;;;;;;0.8;0.8;;;;;;;11.0;100.0;101720;;;;
2022/06/02 01:45:10;;;;;;;0.8;0.8;;;;;;;11.0;100.0;101720;;;;
2022/06/02 01:46:10;;;;;;;0.8;0.8;;;;;;;11.0;100.0;101720;;;;
2022/06/02 01:47:00;;;;;;;0.8;0.8;;;;;;;11.0;100.0;101720;;;;
2022/06/02 01:48:04;;;;;;;0.8;0.8;;;;;;;11.0;100.0;101720;;;;
2022/06/02 01:49:00;;;;;;;0.8;0.8;;;;;;;11.0;100.0;101720;;;;
2022/06/02 01:50:07;;;;;;;0.8;0.8;;;;;;;10.9;100.0;101720;;;;
2022/06/02 01:51:10;;;;;;;0.8;0.8;;;;;;;10.9;100.0;101720;;;;
2022/06/02 01:52:10;;;;;;;0.9;0.9;;;;;;;10.9;100.0;101720;;;;
2022/06/02 01:53:08;;;;;;;0.9;0.9;;;;;;;10.9;100.0;101720;;;;
2022/06/02 01:54:00;;;;;;;0.9;0.9;;;;;;;10.9;100.0;101720;;;;
2022/06/02 01:55:07;;;;;;;0.9;0.9;;;;;;;10.9;100.0;101720;;;;
2022/06/02 01:56:10;;;;;;;0.9;0.9;;;;;;;10.9;100.0;101720;;;;
2022/06/02 01:57:01;;;;;;;0.9;0.9;;;;;;;10.9;100.0;101720;;;;
2022/06/02 01:58:00;;;;;;;0.9;0.9;;;;;;;10.9;100.0;101720;;;;
2022/06/02 01:59:09;;;;;;;0.9;0.9;;;;;;;10.9;100.0;101720;;;;
2022/06/02 02:00:10;;;;;;;0.9;0.9;;;;;;;10.9;100.0;101720;;;;
2022/06/02 02:01:05;;;;;;;0.9;0.9;;;;;;;10.9;100.0;101720;;;;
2022/06/02 02:02:07;;;;;;;0.9;0.9;;;;;;;10.8;100.0;101720;;;;
2022/06/02 02:03:03;;;;;;;0.9;0.9;;;;;;;10.8;100.0;101720;;;;
2022/06/02 02:04:10;;;;;;;0.9;0.9;;;;;;;10.8;100.0;101720;;;;
2022/06/02 02:05:08;;;;;;;0.9;0.9;;;;;;;10.8;100.0;101720;;;;
2022/06/02 02:06:00;;;;;;;0.9;0.9;;;;;;;10.8;100.0;101720;;;;
2022/06/02 02:07:01;;;;;;;0.9;0.9;;;;;;;10.8;100.0;101720;;;;
2022/06/02 02:08:01;;;;;;;0.9;0.9;;;;;;;10.8;100.0;101710;;;;
2022/06/02 02:09:06;;;;;;;0.9;0.9;;;;;;;10.8;100.0;101710;;;;
2022/06/02 02:10:16;;;;;;;0.9;0.9;;;;;;;10.8;100.0;101720;;;;
2022/06/02 02:11:00;;;;;;;0.9;0.9;;;;;;;10.8;100.0;101720;;;;
2022/06/02 02:12:00;;;;;;;0.9;0.9;;;;;;;10.7;100.0;101720;;;;
2022/06/02 02:13:10;;;;;;;0.9;0.9;;;;;;;10.7;100.0;101720;;;;
2022/06/02 02:14:10;;;;;;;0.9;0.9;;;;;;;10.7;100.0;101720;;;;
2022/06/02 02:15:03;;;;;;;0.9;0.9;;;;;;;10.7;100.0;101720;;;;
2022/06/02 02:16:00;;;;;;;0.9;0.9;;;;;;;10.7;100.0;101720;;;;
2022/06/02 02:17:00;;;;;;;0.9;0.9;;;;;;;10.7;100.0;101720;;;;
2022/06/02 02:18:10;;;;;;;0.9;0.9;;;;;;;10.7;100.0;101720;;;;
2022/06/02 02:19:07;;;;;;;0.9;0.9;;;;;;;10.7;100.0;101720;;;;
2022/06/02 02:20:10;;;;;;;0.9;0.9;;;;;;;10.6;100.0;101720;;;;
2022/06/02 02:21:00;;;;;;;0.9;0.9;;;;;;;10.6;100.0;101720;;;;
2022/06/02 02:22:01;;;;;;;0.9;0.9;;;;;;;10.6;100.0;101730;;;;
2022/06/02 02:23:07;;;;;;;0.9;0.9;;;;;;;10.6;100.0;101730;;;;
2022/06/02 02:24:07;;;;;;;0.9;0.9;;;;;;;10.6;100.0;101730;;;;
2022/06/02 02:25:00;;;;;;;0.9;0.9;;;;;;;10.6;100.0;101730;;;;
2022/06/02 02:26:04;;;;;;;0.9;0.9;;;;;;;10.6;100.0;101730;;;;
2022/06/02 02:27:07;;;;;;;0.9;0.9;;;;;;;10.6;100.0;101730;;;;
2022/06/02 02:28:07;;;;;;;0.9;0.9;;;;;;;10.6;100.0;101730;;;;
2022/06/02 02:29:00;;;;;;;0.9;0.9;;;;;;;10.6;100.0;101730;;;;
2022/06/02 02:30:07;;;;;;;0.9;0.9;;;;;;;10.6;100.0;101730;;;;
2022/06/02 02:31:00;;;;;;;0.9;0.9;;;;;;;10.6;100.0;101730;;;;
2022/06/02 02:32:10;;;;;;;1.1;1.1;;;;;;;10.5;100.0;101730;;;;
2022/06/02 02:33:10;;;;;;;1.1;1.1;;;;;;;10.5;100.0;101730;;;;
2022/06/02 02:34:10;;;;;;;1.1;1.1;;;;;;;10.6;100.0;101730;;;;
2022/06/02 02:35:10;;;;;;;1.1;1.1;;;;;;;10.6;100.0;101730;;;;
2022/06/02 02:36:10;;;;;;;1.1;1.1;;;;;;;10.6;100.0;101730;;;;
2022/06/02 02:37:10;;;;;;;1.1;1.1;;;;;;;10.6;100.0;101730;;;;
2022/06/02 02:38:10;;;;;;;1.1;1.1;;;;;;;10.5;100.0;101730;;;;
2022/06/02 02:39:04;;;;;;;1.1;1.1;;;;;;;10.5;100.0;101730;;;;
2022/06/02 02:40:05;;;;;;;1.1;1.1;;;;;;;10.5;100.0;101730;;;;
2022/06/02 02:41:02;;;;;;;1.1;1.1;;;;;;;10.5;100.0;101730;;;;
2022/06/02 02:42:05;;;;;;;1.1;1.1;;;;;;;10.5;100.0;101730;;;;
2022/06/02 02:43:10;;;;;;;1.1;1.1;;;;;;;10.5;100.0;101730;;;;
2022/06/02 02:44:05;;;;;;;1.1;1.1;;;;;;;10.4;100.0;101730;;;;
2022/06/02 02:45:00;;;;;;;1.1;1.1;;;;;;;10.4;100.0;101730;;;;
2022/06/02 02:46:10;;;;;;;1.1;1.1;;;;;;;10.4;100.0;101730;;;;
2022/06/02 02:47:10;;;;;;;1.1;1.1;;;;;;;10.4;100.0;101730;;;;
2022/06/02 02:48:10;;;;;;;1.1;1.1;;;;;;;10.4;100.0;101730;;;;
2022/06/02 02:49:10;;;;;;;1.1;1.1;;;;;;;10.4;100.0;101730;;;;
2022/06/02 02:50:01;;;;;;;1.1;1.1;;;;;;;10.4;100.0;101730;;;;
2022/06/02 02:51:01;;;;;;;1.1;1.1;;;;;;;10.4;100.0;101730;;;;
2022/06/02 02:52:05;;;;;;;1.1;1.1;;;;;;;10.4;100.0;101730;;;;
2022/06/02 02:53:10;;;;;;;1.1;1.1;;;;;;;10.4;100.0;101730;;;;
2022/06/02 02:54:10;;;;;;;1.1;1.1;;;;;;;10.3;100.0;101740;;;;
2022/06/02 02:55:03;;;;;;;1.1;1.1;;;;;;;10.3;100.0;101740;;;;
2022/06/02 02:56:10;;;;;;;1.1;1.1;;;;;;;10.3;100.0;101740;;;;
2022/06/02 02:57:05;;;;;;;1.1;1.1;;;;;;;10.3;100.0;101740;;;;
2022/06/02 02:58:04;;;;;;;1.1;1.1;;;;;;;10.3;100.0;101730;;;;
2022/06/02 02:59:04;;;;;;;1.1;1.1;;;;;;;10.3;100.0;101730;;;;
2022/06/02 03:00:05;;;;;;;1.1;1.1;;;;;;;10.2;100.0;101740;;;;
2022/06/02 03:01:03;;;;;;;1.1;1.1;;;;;;;10.2;100.0;101740;;;;
2022/06/02 03:02:03;;;;;;;1.1;1.1;;;;;;;10.2;100.0;101740;;;;
2022/06/02 03:03:01;;;;;;;1.1;1.1;;;;;;;10.2;100.0;101740;;;;
2022/06/02 03:04:10;;;;;;;1.1;1.1;;;;;;;10.2;100.0;101750;;;;
2022/06/02 03:05:07;;;;;;;1.1;1.1;;;;;;;10.2;100.0;101750;;;;
2022/06/02 03:06:01;;;;;;;1.1;1.1;;;;;;;10.2;100.0;101750;;;;
2022/06/02 03:07:01;;;;;;;1.1;1.1;;;;;;;10.2;100.0;101750;;;;
2022/06/02 03:08:05;;;;;;;1.1;1.1;;;;;;;10.2;100.0;101750;;;;
2022/06/02 03:09:05;;;;;;;1.1;1.1;;;;;;;10.2;100.0;101750;;;;
2022/06/02 03:10:07;;;;;;;1.1;1.1;;;;;;;10.2;100.0;101750;;;;
2022/06/02 03:11:03;;;;;;;1.1;1.1;;;;;;;10.2;100.0;101750;;;;
2022/06/02 03:12:10;;;;;;;0.9;0.9;;;;;;;10.1;100.0;101760;;;;
2022/06/02 03:13:06;;;;;;;0.9;0.9;;;;;;;10.1;100.0;101760;;;;
2022/06/02 03:14:00;;;;;;;0.9;0.9;;;;;;;10.1;100.0;101760;;;;
2022/06/02 03:15:10;;;;;;;0.9;0.9;;;;;;;10.1;100.0;101760;;;;
2022/06/02 03:16:05;;;;;;;0.9;0.9;;;;;;;10.1;100.0;101760;;;;
2022/06/02 03:17:10;;;;;;;0.9;0.9;;;;;;;10.1;100.0;101760;;;;
2022/06/02 03:18:08;;;;;;;0.9;0.9;;;;;;;10.1;100.0;101760;;;;
2022/06/02 03:19:10;;;;;;;0.9;0.9;;;;;;;10.1;100.0;101760;;;;
2022/06/02 03:20:10;;;;;;;0.9;0.9;;;;;;;10.1;100.0;101760;;;;
2022/06/02 03:21:00;;;;;;;0.9;0.9;;;;;;;10.1;100.0;101760;;;;
2022/06/02 03:22:06;;;;;;;0.9;0.9;;;;;;;10.1;100.0;101760;;;;
2022/06/02 03:23:08;;;;;;;0.9;0.9;;;;;;;10.1;100.0;101760;;;;
2022/06/02 03:24:10;;;;;;;0.9;0.9;;;;;;;10.1;100.0;101760;;;;
2022/06/02 03:25:00;;;;;;;0.9;0.9;;;;;;;10.1;100.0;101760;;;;
2022/06/02 03:26:10;;;;;;;0.9;0.9;;;;;;;10.1;100.0;101770;;;;
2022/06/02 03:27:10;;;;;;;0.9;0.9;;;;;;;10.1;100.0;101770;;;;
2022/06/02 03:28:10;;;;;;;0.9;0.9;;;;;;;10.0;100.0;101770;;;;
2022/06/02 03:29:06;;;;;;;0.9;0.9;;;;;;;10.0;100.0;101770;;;;
2022/06/02 03:30:08;;;;;;;0.9;0.9;;;;;;;10.1;100.0;101770;;;;
2022/06/02 03:31:04;;;;;;;0.9;0.9;;;;;;;10.1;100.0;101770;;;;
2022/06/02 03:32:00;;;;;;;1.5;1.5;;;;;;;10.0;100.0;101780;;;;
2022/06/02 03:33:06;;;;;;;1.5;1.5;;;;;;;10.0;100.0;101780;;;;
2022/06/02 03:34:06;;;;;;;1.5;1.5;;;;;;;9.9;100.0;101780;;;;
2022/06/02 03:35:10;;;;;;;1.5;1.5;;;;;;;9.9;100.0;101780;;;;
2022/06/02 03:36:00;;;;;;;1.5;1.5;;;;;;;10.0;100.0;101780;;;;
2022/06/02 03:37:10;;;;;;;1.5;1.5;;;;;;;10.0;100.0;101780;;;;
2022/06/02 03:38:10;;;;;;;1.5;1.5;;;;;;;10.0;100.0;101780;;;;
2022/06/02 03:39:08;;;;;;;1.5;1.5;;;;;;;10.0;100.0;101780;;;;
2022/06/02 03:40:10;;;;;;;1.5;1.5;;;;;;;10.0;100.0;101780;;;;
2022/06/02 03:41:05;;;;;;;1.5;1.5;;;;;;;10.0;100.0;101780;;;;
2022/06/02 03:42:07;;;;;;;1.5;1.5;;;;;;;10.0;100.0;101780;;;;
2022/06/02 03:43:10;;;;;;;1.5;1.5;;;;;;;10.0;100.0;101780;;;;
2022/06/02 03:44:11;;;;;;;1.5;1.5;;;;;;;10.0;100.0;101790;;;;
2022/06/02 03:45:06;;;;;;;1.5;1.5;;;;;;;10.0;100.0;101790;;;;
2022/06/02 03:46:10;;;;;;;1.5;1.5;;;;;;;9.9;100.0;101790;;;;
2022/06/02 03:47:07;;;;;;;1.5;1.5;;;;;;;9.9;100.0;101790;;;;
2022/06/02 03:48:03;;;;;;;1.5;1.5;;;;;;;9.9;100.0;101790;;;;
2022/06/02 03:49:07;;;;;;;1.5;1.5;;;;;;;9.9;100.0;101790;;;;
2022/06/02 03:50:10;;;;;;;1.5;1.5;;;;;;;9.9;100.0;101790;;;;
2022/06/02 03:51:07;;;;;;;1.5;1.5;;;;;;;9.9;100.0;101790;;;;
2022/06/02 03:52:10;;;;;;;0.9;0.9;;;;;;;10.0;100.0;101790;;;;
2022/06/02 03:53:01;;;;;;;0.9;0.9;;;;;;;10.0;100.0;101790;;;;
2022/06/02 03:54:10;;;;;;;0.9;0.9;;;;;;;9.9;100.0;101800;;;;
2022/06/02 03:55:01;;;;;;;0.9;0.9;;;;;;;9.9;100.0;101800;;;;
2022/06/02 03:56:10;;;;;;;0.9;0.9;;;;;;;10.0;100.0;101790;;;;
2022/06/02 03:57:07;;;;;;;0.9;0.9;;;;;;;10.0;100.0;101790;;;;
2022/06/02 03:58:00;;;;;;;0.9;0.9;;;;;;;9.9;100.0;101800;;;;
2022/06/02 03:59:06;;;;;;;0.9;0.9;;;;;;;9.9;100.0;101800;;;;
2022/06/02 04:00:00;;;;;;;0.9;0.9;;;;;;;9.9;100.0;101800;;;;
2022/06/02 04:01:01;;;;;;;0.9;0.9;;;;;;;9.9;100.0;101800;;;;
2022/06/02 04:02:02;;;;;;;0.9;0.9;;;;;;;9.9;100.0;101790;;;;
2022/06/02 04:03:02;;;;;;;0.9;0.9;;;;;;;9.9;100.0;101790;;;;
2022/06/02 04:04:08;;;;;;;0.9;0.9;;;;;;;9.9;100.0;101800;;;;
2022/06/02 04:05:10;;;;;;;0.9;0.9;;;;;;;9.9;100.0;101800;;;;
2022/06/02 04:06:10;;;;;;;0.9;0.9;;;;;;;9.9;100.0;101800;;;;
2022/06/02 04:07:11;;;;;;;0.9;0.9;;;;;;;9.9;100.0;101800;;;;
2022/06/02 04:08:01;;;;;;;0.9;0.9;;;;;;;9.9;100.0;101800;;;;
2022/06/02 04:09:10;;;;;;;0.9;0.9;;;;;;;9.9;100.0;101800;;;;
2022/06/02 04:10:01;;;;;;;0.9;0.9;;;;;;;9.8;100.0;101800;;;;
2022/06/02 04:11:10;;;;;;;0.9;0.9;;;;;;;9.8;100.0;101800;;;;
2022/06/02 04:14:03;;;;;;;1.2;1.2;;;;;;;9.9;100.0;101800;;;;
2022/06/02 04:15:07;;;;;;;1.2;1.2;;;;;;;9.9;100.0;101800;;;;
2022/06/02 04:16:10;;;;;;;1.2;1.2;;;;;;;9.9;100.0;101800;;;;
2022/06/02 04:17:02;;;;;;;1.2;1.2;;;;;;;9.9;100.0;101800;;;;
2022/06/02 04:18:03;;;;;;;1.2;1.2;;;;;;;9.9;100.0;101800;;;;
2022/06/02 04:19:01;;;;;;;1.2;1.2;;;;;;;9.9;100.0;101800;;;;
2022/06/02 04:21:00;;;;;;;1.2;1.2;;;;;;;9.9;100.0;101800;;;;
2022/06/02 04:22:09;;;;;;;1.2;1.2;;;;;;;9.9;100.0;101810;;;;
2022/06/02 04:23:01;;;;;;;1.2;1.2;;;;;;;9.9;100.0;101810;;;;
2022/06/02 04:24:00;;;;;;;1.2;1.2;;;;;;;9.9;100.0;101810;;;;
2022/06/02 04:25:10;;;;;;;1.2;1.2;;;;;;;9.9;100.0;101810;;;;
2022/06/02 04:26:00;;;;;;;1.2;1.2;;;;;;;9.9;100.0;101810;;;;
2022/06/02 04:27:07;;;;;;;1.2;1.2;;;;;;;9.9;100.0;101810;;;;
2022/06/02 04:28:10;;;;;;;1.2;1.2;;;;;;;9.9;100.0;101810;;;;
2022/06/02 04:29:01;;;;;;;1.2;1.2;;;;;;;9.9;100.0;101810;;;;
2022/06/02 04:30:10;;;;;;;1.2;1.2;;;;;;;9.9;100.0;101810;;;;
2022/06/02 04:31:10;;;;;;;1.2;1.2;;;;;;;9.9;100.0;101810;;;;
2022/06/02 04:32:10;;;;;;;1.4;1.4;;;;;;;10.0;100.0;101810;;;;
2022/06/02 04:33:08;;;;;;;1.4;1.4;;;;;;;10.0;100.0;101810;;;;
2022/06/02 04:34:00;;;;;;;1.4;1.4;;;;;;;10.0;100.0;101820;;;;
2022/06/02 04:35:10;;;;;;;1.4;1.4;;;;;;;10.0;100.0;101820;;;;
2022/06/02 04:36:07;;;;;;;1.4;1.4;;;;;;;9.9;100.0;101820;;;;
2022/06/02 04:37:01;;;;;;;1.4;1.4;;;;;;;9.9;100.0;101820;;;;
2022/06/02 04:38:10;;;;;;;1.4;1.4;;;;;;;9.9;100.0;101820;;;;
2022/06/02 04:39:10;;;;;;;1.4;1.4;;;;;;;9.9;100.0;101820;;;;
2022/06/02 04:40:01;;;;;;;1.4;1.4;;;;;;;10.0;100.0;101820;;;;
2022/06/02 04:41:10;;;;;;;1.4;1.4;;;;;;;10.0;100.0;101820;;;;
2022/06/02 04:42:05;;;;;;;1.4;1.4;;;;;;;9.9;100.0;101820;;;;
2022/06/02 04:43:10;;;;;;;1.4;1.4;;;;;;;9.9;100.0;101820;;;;
2022/06/02 04:44:00;;;;;;;1.4;1.4;;;;;;;10.0;100.0;101820;;;;
2022/06/02 04:45:06;;;;;;;1.4;1.4;;;;;;;10.0;100.0;101820;;;;
2022/06/02 04:46:10;;;;;;;1.4;1.4;;;;;;;10.0;100.0;101830;;;;
2022/06/02 04:47:03;;;;;;;1.4;1.4;;;;;;;10.0;100.0;101830;;;;
2022/06/02 04:48:10;;;;;;;1.4;1.4;;;;;;;10.1;100.0;101830;;;;
2022/06/02 04:49:08;;;;;;;1.4;1.4;;;;;;;10.1;100.0;101830;;;;
2022/06/02 04:50:07;;;;;;;1.4;1.4;;;;;;;10.0;100.0;101830;;;;
2022/06/02 04:51:00;;;;;;;1.4;1.4;;;;;;;10.0;100.0;101830;;;;
2022/06/02 04:52:11;;;;;;;2.0;1.9;;;;;;;10.1;100.0;101840;;;;
2022/06/02 04:53:03;;;;;;;2.0;1.9;;;;;;;10.1;100.0;101840;;;;
2022/06/02 04:54:10;;;;;;;2.0;1.9;;;;;;;10.1;100.0;101840;;;;
2022/06/02 04:55:08;;;;;;;2.0;1.9;;;;;;;10.1;100.0;101840;;;;
2022/06/02 04:56:09;;;;;;;2.0;1.9;;;;;;;10.2;100.0;101840;;;;
2022/06/02 04:57:10;;;;;;;2.0;1.9;;;;;;;10.2;100.0;101840;;;;
2022/06/02 04:58:10;;;;;;;2.0;1.9;;;;;;;10.2;100.0;101840;;;;
2022/06/02 04:59:11;;;;;;;2.0;1.9;;;;;;;10.2;100.0;101840;;;;
2022/06/02 05:00:09;;;;;;;2.0;1.9;;;;;;;10.2;100.0;101840;;;;
2022/06/02 05:01:05;;;;;;;2.0;1.9;;;;;;;10.2;100.0;101840;;;;
2022/06/02 05:02:10;;;;;;;2.0;1.9;;;;;;;10.2;100.0;101840;;;;
2022/06/02 05:03:10;;;;;;;2.0;1.9;;;;;;;10.2;100.0;101840;;;;
2022/06/02 05:04:00;;;;;;;2.0;1.9;;;;;;;10.3;100.0;101840;;;;
2022/06/02 05:05:10;;;;;;;2.0;1.9;;;;;;;10.3;100.0;101840;;;;
2022/06/02 05:06:01;;;;;;;2.0;1.9;;;;;;;10.3;100.0;101840;;;;
2022/06/02 05:07:07;;;;;;;2.0;1.9;;;;;;;10.3;100.0;101840;;;;
2022/06/02 05:08:10;;;;;;;2.0;1.9;;;;;;;10.3;100.0;101850;;;;
2022/06/02 05:09:00;;;;;;;2.0;1.9;;;;;;;10.3;100.0;101850;;;;
2022/06/02 05:10:10;;;;;;;2.0;1.9;;;;;;;10.4;100.0;101850;;;;
2022/06/02 05:11:10;;;;;;;2.0;1.9;;;;;;;10.4;100.0;101850;;;;
2022/06/02 05:12:10;;;;;;;1.2;1.2;;;;;;;10.5;100.0;101850;;;;
2022/06/02 05:13:10;;;;;;;1.2;1.2;;;;;;;10.5;100.0;101850;;;;
2022/06/02 05:14:03;;;;;;;1.2;1.2;;;;;;;10.4;100.0;101850;;;;
2022/06/02 05:15:10;;;;;;;1.2;1.2;;;;;;;10.4;100.0;101850;;;;
2022/06/02 05:16:11;;;;;;;1.2;1.2;;;;;;;10.5;100.0;101850;;;;
2022/06/02 05:17:01;;;;;;;1.2;1.2;;;;;;;10.5;100.0;101850;;;;
2022/06/02 05:18:10;;;;;;;1.2;1.2;;;;;;;10.6;100.0;101850;;;;
2022/06/02 05:19:10;;;;;;;1.2;1.2;;;;;;;10.6;100.0;101850;;;;
2022/06/02 05:20:10;;;;;;;1.2;1.2;;;;;;;10.7;100.0;101850;;;;
2022/06/02 05:21:00;;;;;;;1.2;1.2;;;;;;;10.7;100.0;101850;;;;
2022/06/02 05:22:03;;;;;;;1.2;1.2;;;;;;;10.7;100.0;101850;;;;
2022/06/02 05:23:01;;;;;;;1.2;1.2;;;;;;;10.7;100.0;101850;;;;
2022/06/02 05:24:10;;;;;;;1.2;1.2;;;;;;;10.8;100.0;101850;;;;
2022/06/02 05:25:12;;;;;;;1.2;1.2;;;;;;;10.8;100.0;101850;;;;
2022/06/02 05:26:06;;;;;;;1.2;1.2;;;;;;;10.8;100.0;101850;;;;
2022/06/02 05:27:03;;;;;;;1.2;1.2;;;;;;;10.8;100.0;101850;;;;
2022/06/02 05:28:08;;;;;;;1.2;1.2;;;;;;;10.9;100.0;101850;;;;
2022/06/02 05:29:00;;;;;;;1.2;1.2;;;;;;;10.9;100.0;101850;;;;
2022/06/02 05:30:03;;;;;;;1.2;1.2;;;;;;;11.0;100.0;101850;;;;
2022/06/02 05:31:01;;;;;;;1.2;1.2;;;;;;;11.0;100.0;101850;;;;
2022/06/02 05:32:09;;;;;;;1.0;1.0;;;;;;;11.0;100.0;101850;;;;
2022/06/02 05:33:10;;;;;;;1.0;1.0;;;;;;;11.0;100.0;101850;;;;
2022/06/02 05:34:00;;;;;;;1.0;1.0;;;;;;;11.0;100.0;101850;;;;
2022/06/02 05:35:10;;;;;;;1.0;1.0;;;;;;;11.0;100.0;101850;;;;
2022/06/02 05:36:10;;;;;;;1.0;1.0;;;;;;;11.1;100.0;101850;;;;
2022/06/02 05:37:10;;;;;;;1.0;1.0;;;;;;;11.1;100.0;101850;;;;
2022/06/02 05:38:00;;;;;;;1.0;1.0;;;;;;;11.2;100.0;101860;;;;
2022/06/02 05:39:10;;;;;;;1.0;1.0;;;;;;;11.2;100.0;101860;;;;
2022/06/02 05:40:10;;;;;;;1.0;1.0;;;;;;;11.2;100.0;101860;;;;
2022/06/02 05:41:00;;;;;;;1.0;1.0;;;;;;;11.2;100.0;101860;;;;
2022/06/02 05:42:04;;;;;;;1.0;1.0;;;;;;;11.3;100.0;101860;;;;
2022/06/02 05:43:00;;;;;;;1.0;1.0;;;;;;;11.3;100.0;101860;;;;
2022/06/02 05:44:10;;;;;;;1.0;1.0;;;;;;;11.3;100.0;101860;;;;
2022/06/02 05:45:11;;;;;;;1.0;1.0;;;;;;;11.3;100.0;101860;;;;
2022/06/02 05:46:01;;;;;;;1.0;1.0;;;;;;;11.4;100.0;101860;;;;
2022/06/02 05:47:10;;;;;;;1.0;1.0;;;;;;;11.4;100.0;101860;;;;
2022/06/02 05:48:00;;;;;;;1.0;1.0;;;;;;;11.6;100.0;101860;;;;
2022/06/02 05:49:00;;;;;;;1.0;1.0;;;;;;;11.6;100.0;101860;;;;
2022/06/02 05:50:10;;;;;;;1.0;1.0;;;;;;;11.6;100.0;101860;;;;
2022/06/02 05:51:05;;;;;;;1.0;1.0;;;;;;;11.6;100.0;101860;;;;
2022/06/02 05:52:10;;;;;;;1.6;1.5;;;;;;;11.7;100.0;101860;;;;
2022/06/02 05:53:10;;;;;;;1.6;1.5;;;;;;;11.7;100.0;101860;;;;
2022/06/02 05:54:10;;;;;;;1.6;1.5;;;;;;;11.7;100.0;101870;;;;
2022/06/02 05:55:00;;;;;;;1.6;1.5;;;;;;;11.7;100.0;101870;;;;
2022/06/02 05:56:05;;;;;;;1.6;1.5;;;;;;;11.8;100.0;101860;;;;
2022/06/02 05:57:04;;;;;;;1.6;1.5;;;;;;;11.8;100.0;101860;;;;
2022/06/02 05:58:01;;;;;;;1.6;1.5;;;;;;;12.0;100.0;101870;;;;
2022/06/02 05:59:10;;;;;;;1.6;1.5;;;;;;;12.0;100.0;101870;;;;
2022/06/02 06:00:11;;;;;;;1.6;1.5;;;;;;;12.0;100.0;101870;;;;
2022/06/02 06:01:00;;;;;;;1.6;1.5;;;;;;;12.0;100.0;101870;;;;
2022/06/02 06:02:10;;;;;;;1.6;1.5;;;;;;;12.1;100.0;101870;;;;
2022/06/02 06:03:00;;;;;;;1.6;1.5;;;;;;;12.1;100.0;101870;;;;
2022/06/02 06:04:10;;;;;;;1.6;1.5;;;;;;;12.3;100.0;101870;;;;
2022/06/02 06:05:10;;;;;;;1.6;1.5;;;;;;;12.3;100.0;101870;;;;
2022/06/02 06:06:03;;;;;;;1.6;1.5;;;;;;;12.2;100.0;101870;;;;
2022/06/02 06:07:01;;;;;;;1.6;1.5;;;;;;;12.2;100.0;101870;;;;
2022/06/02 06:08:11;;;;;;;1.6;1.5;;;;;;;12.3;100.0;101870;;;;
2022/06/02 06:09:12;;;;;;;1.6;1.5;;;;;;;12.3;100.0;101870;;;;
2022/06/02 06:10:00;;;;;;;1.6;1.5;;;;;;;12.5;100.0;101870;;;;
2022/06/02 06:11:10;;;;;;;1.3;1.3;;;;;;;12.5;100.0;101870;;;;
2022/06/02 06:12:00;;;;;;;1.3;1.3;;;;;;;12.4;100.0;101870;;;;
2022/06/02 06:13:07;;;;;;;1.3;1.3;;;;;;;12.4;100.0;101870;;;;
2022/06/02 06:14:00;;;;;;;1.3;1.3;;;;;;;12.5;100.0;101870;;;;
2022/06/02 06:15:09;;;;;;;1.3;1.3;;;;;;;12.5;100.0;101870;;;;
2022/06/02 06:16:10;;;;;;;1.3;1.3;;;;;;;12.6;100.0;101880;;;;
2022/06/02 06:17:01;;;;;;;1.3;1.3;;;;;;;12.6;100.0;101880;;;;
2022/06/02 06:18:01;;;;;;;1.3;1.3;;;;;;;12.7;100.0;101870;;;;
2022/06/02 06:19:10;;;;;;;1.3;1.3;;;;;;;12.7;100.0;101870;;;;
2022/06/02 06:20:08;;;;;;;1.3;1.3;;;;;;;12.8;100.0;101880;;;;
2022/06/02 06:21:01;;;;;;;1.3;1.3;;;;;;;12.8;100.0;101880;;;;
2022/06/02 06:22:10;;;;;;;1.3;1.3;;;;;;;12.7;100.0;101880;;;;
2022/06/02 06:23:10;;;;;;;1.3;1.3;;;;;;;12.7;100.0;101880;;;;
2022/06/02 06:24:10;;;;;;;1.3;1.3;;;;;;;12.8;100.0;101880;;;;
2022/06/02 06:25:10;;;;;;;1.3;1.3;;;;;;;12.8;100.0;101880;;;;
2022/06/02 06:26:10;;;;;;;1.3;1.3;;;;;;;12.8;100.0;101880;;;;
2022/06/02 06:27:04;;;;;;;1.3;1.3;;;;;;;12.8;100.0;101880;;;;
2022/06/02 06:28:10;;;;;;;1.3;1.3;;;;;;;12.9;100.0;101890;;;;
2022/06/02 06:29:09;;;;;;;1.3;1.3;;;;;;;12.9;100.0;101890;;;;
2022/06/02 06:30:01;;;;;;;1.3;1.3;;;;;;;12.9;100.0;101890;;;;